Time;durP1;ratioP1;P1;durP2;ratioP2;P2;SDS_P1;SDS_P2;PMS_P1;PMS_P2;Temp;Humidity;BMP_temperature;BMP_pressure;BME280_temperature;BME280_humidity;BME280_pressure;Samples;Min_cycle;Max_cycle;Signal;HPM_P1;HPM_P2
2022/09/13 00:01:41;;;;;;;2.35;0.10;;;;;;;16.70;100.00;100599.38;5049516;28;20380;-62
2022/09/13 00:04:07;;;;;;;0.30;0.00;;;;;;;16.64;100.00;100600.09;5050414;28;20025;-62
2022/09/13 00:06:32;;;;;;;1.13;0.22;;;;;;;16.59;100.00;100597.16;5050507;28;20036;-63
2022/09/13 00:09:00;;;;;;;1.65;0.10;;;;;;;16.53;100.00;100596.09;5049103;28;20028;-62
2022/09/13 00:11:28;;;;;;;0.65;0.10;;;;;;;16.51;100.00;100594.63;5032112;28;20090;-64
2022/09/13 00:13:54;;;;;;;4.55;0.20;;;;;;;16.47;100.00;100596.81;5050406;28;20033;-62
2022/09/13 00:16:23;;;;;;;2.55;0.10;;;;;;;16.48;100.00;100589.72;5048917;28;20021;-64
2022/09/13 00:18:50;;;;;;;2.30;0.20;;;;;;;16.48;100.00;100593.16;5031888;28;20091;-64
2022/09/13 00:21:17;;;;;;;0.10;0.10;;;;;;;16.51;100.00;100586.75;5049769;28;20484;-63
2022/09/13 00:23:45;;;;;;;1.05;0.10;;;;;;;16.52;100.00;100591.00;5049693;28;20075;-64
2022/09/13 00:26:15;;;;;;;0.77;0.10;;;;;;;16.56;100.00;100590.44;5030914;28;20111;-65
2022/09/13 00:28:41;;;;;;;0.35;0.10;;;;;;;16.58;100.00;100588.44;5050071;28;20393;-64
2022/09/13 00:31:08;;;;;;;3.40;0.20;;;;;;;16.59;100.00;100586.63;5048733;28;20079;-64
2022/09/13 00:33:34;;;;;;;1.92;0.10;;;;;;;16.59;100.00;100581.38;5050012;28;20040;-64
2022/09/13 00:36:08;;;;;;;0.47;0.10;;;;;;;16.58;100.00;100588.44;5049921;28;20044;-61
2022/09/13 00:38:35;;;;;;;0.68;0.17;;;;;;;16.58;100.00;100590.25;5048417;28;20121;-62
2022/09/13 00:41:07;;;;;;;2.40;0.25;;;;;;;16.60;100.00;100596.16;5049530;28;20516;-63
2022/09/13 00:43:44;;;;;;;0.40;0.10;;;;;;;16.62;100.00;100596.78;5049702;28;20052;-63
2022/09/13 00:46:19;;;;;;;1.75;0.10;;;;;;;16.66;100.00;100597.28;5048638;28;20087;-62
2022/09/13 00:48:48;;;;;;;0.47;0.10;;;;;;;16.69;100.00;100586.41;5029749;28;20033;-62
2022/09/13 00:51:14;;;;;;;4.93;0.10;;;;;;;16.74;100.00;100586.66;5027441;28;20605;-62
2022/09/13 00:53:44;;;;;;;2.47;0.10;;;;;;;16.79;100.00;100587.75;5029682;28;20111;-65
2022/09/13 00:56:33;;;;;;;2.60;0.20;;;;;;;16.80;100.00;100581.50;5029866;28;20029;-65
2022/09/13 00:59:04;;;;;;;2.40;0.10;;;;;;;16.86;99.87;100579.97;5029596;28;20493;-62
2022/09/13 01:01:39;;;;;;;1.33;0.10;;;;;;;16.91;99.06;100577.59;5032624;28;20480;-64
2022/09/13 01:04:05;;;;;;;1.00;0.00;;;;;;;16.98;99.13;100582.97;5048601;28;20472;-62
2022/09/13 01:06:34;;;;;;;1.65;0.30;;;;;;;16.99;99.13;100580.13;5049226;28;20041;-64
2022/09/13 01:09:03;;;;;;;1.02;0.20;;;;;;;16.97;98.92;100576.06;5048349;28;20488;-62
2022/09/13 01:11:44;;;;;;;1.10;0.10;;;;;;;16.92;98.92;100580.06;5049188;28;20040;-64
2022/09/13 01:14:10;;;;;;;0.80;0.10;;;;;;;16.97;98.88;100576.88;5048183;28;20119;-63
2022/09/13 01:16:36;;;;;;;4.15;0.15;;;;;;;17.00;99.24;100562.53;5047859;28;20037;-61
2022/09/13 01:19:02;;;;;;;0.60;0.10;;;;;;;17.00;99.45;100573.06;5030110;28;20036;-65
2022/09/13 01:22:01;;;;;;;1.42;0.10;;;;;;;16.94;100.00;100568.53;5049088;28;20483;-62
2022/09/13 01:24:54;;;;;;;2.85;0.10;;;;;;;16.90;98.90;100566.25;5048919;28;20480;-62
2022/09/13 01:28:01;;;;;;;1.77;0.10;;;;;;;16.94;98.69;100558.00;5047837;28;20456;-63
2022/09/13 01:31:18;;;;;;;6.03;0.20;;;;;;;16.97;98.57;100566.34;4966710;28;20039;-62
2022/09/13 01:34:11;;;;;;;0.60;0.20;;;;;;;16.92;99.56;100560.81;4939949;28;20082;-61
2022/09/13 01:36:48;;;;;;;3.90;0.10;;;;;;;16.94;99.84;100553.56;4967038;28;20034;-63
2022/09/13 01:39:41;;;;;;;3.63;0.20;;;;;;;16.92;100.00;100552.91;4967450;28;20069;-64
2022/09/13 01:42:21;;;;;;;1.00;0.10;;;;;;;16.90;100.00;100552.28;4959835;28;20579;-63
2022/09/13 01:44:55;;;;;;;2.25;0.20;;;;;;;16.90;100.00;100549.66;4967160;28;20376;-64
2022/09/13 01:47:35;;;;;;;1.85;0.30;;;;;;;16.91;100.00;100543.38;4966417;28;20062;-62
2022/09/13 01:50:29;;;;;;;0.98;0.10;;;;;;;16.95;100.00;100535.94;4967040;28;20273;-64
2022/09/13 01:52:57;;;;;;;1.17;0.35;;;;;;;16.99;99.34;100539.84;4966937;28;20495;-65
2022/09/13 01:55:30;;;;;;;0.63;0.10;;;;;;;17.06;98.33;100535.44;4966620;28;20027;-63
2022/09/13 01:58:04;;;;;;;2.92;0.13;;;;;;;17.09;97.82;100535.06;4969037;28;20046;-61
2022/09/13 02:00:43;;;;;;;1.95;0.10;;;;;;;17.09;97.74;100541.16;4966875;28;20118;-62
2022/09/13 02:03:18;;;;;;;1.30;0.10;;;;;;;17.10;97.94;100537.53;4962482;28;20050;-64
2022/09/13 02:05:54;;;;;;;9.13;0.10;;;;;;;17.12;98.49;100534.72;5028055;28;20552;-62
2022/09/13 02:08:27;;;;;;;;;;;;;;;17.05;98.23;100536.44;5033877;28;20086;-63
2022/09/13 02:11:03;;;;;;;0.60;0.15;;;;;;;17.04;99.04;100524.28;5048423;28;19912;-62
2022/09/13 02:13:35;;;;;;;1.55;0.10;;;;;;;17.03;98.91;100530.56;5048266;28;20025;-64
2022/09/13 02:16:09;;;;;;;0.30;0.10;;;;;;;17.03;98.76;100525.28;5048028;28;20071;-62
2022/09/13 02:18:40;;;;;;;0.73;0.10;;;;;;;17.03;98.85;100520.03;5045912;28;20376;-62
2022/09/13 02:21:19;;;;;;;0.20;0.05;;;;;;;16.97;98.60;100534.75;5046524;28;20025;-64
2022/09/13 02:23:52;;;;;;;1.98;0.10;;;;;;;16.91;98.93;100533.69;5048180;28;20052;-64
2022/09/13 02:26:20;;;;;;;2.63;0.10;;;;;;;16.87;99.60;100531.59;5048393;28;20071;-62
2022/09/13 02:28:53;;;;;;;0.60;0.10;;;;;;;16.79;100.00;100532.50;5046630;28;20060;-64
2022/09/13 02:31:28;;;;;;;1.40;0.10;;;;;;;16.74;100.00;100534.88;5047996;28;20037;-63
2022/09/13 02:33:58;;;;;;;4.55;0.10;;;;;;;16.71;100.00;100532.59;5045094;28;20055;-62
2022/09/13 02:36:28;;;;;;;1.30;0.10;;;;;;;16.71;100.00;100537.06;5048032;28;20029;-63
2022/09/13 02:39:05;;;;;;;0.80;0.10;;;;;;;16.68;100.00;100530.34;5046629;28;20029;-60
2022/09/13 02:44:14;;;;;;;1.85;0.20;;;;;;;16.63;100.00;100537.94;5046234;28;20058;-61
2022/09/13 02:47:04;;;;;;;1.98;0.10;;;;;;;16.59;100.00;100541.91;5047492;28;20033;-64
2022/09/13 02:49:56;;;;;;;3.17;0.10;;;;;;;16.56;100.00;100540.47;5047672;28;20032;-61
2022/09/13 02:52:32;;;;;;;0.30;0.10;;;;;;;16.50;100.00;100540.41;5047483;28;20488;-65
2022/09/13 02:55:00;;;;;;;1.27;0.10;;;;;;;16.56;100.00;100542.28;5029633;28;20440;-65
2022/09/13 02:57:37;;;;;;;5.47;0.40;;;;;;;16.61;100.00;100542.53;5047600;28;20573;-63
2022/09/13 03:00:04;;;;;;;2.47;0.10;;;;;;;16.61;100.00;100542.53;5047928;28;20048;-61
2022/09/13 03:02:34;;;;;;;1.77;0.10;;;;;;;16.59;100.00;100541.91;5047978;28;20517;-61
2022/09/13 03:05:01;;;;;;;1.45;0.40;;;;;;;16.54;100.00;100536.41;5047545;28;20036;-63
2022/09/13 03:07:27;;;;;;;0.82;0.15;;;;;;;16.49;100.00;100544.84;5047351;28;20059;-64
2022/09/13 03:09:56;;;;;;;0.40;0.20;;;;;;;16.46;100.00;100537.31;5047684;28;20500;-65
2022/09/13 03:12:46;;;;;;;0.28;0.17;;;;;;;16.48;100.00;100552.91;5047687;28;20033;-63
2022/09/13 03:15:11;;;;;;;0.43;0.10;;;;;;;16.48;100.00;100540.56;5050741;28;20025;-62
2022/09/13 03:18:16;;;;;;;2.28;0.30;;;;;;;16.48;100.00;100537.13;5051177;28;20459;-64
2022/09/13 03:20:56;;;;;;;1.98;0.30;;;;;;;16.49;100.00;100542.22;4953614;28;20058;-61
2022/09/13 03:23:37;;;;;;;3.00;0.10;;;;;;;16.43;100.00;100542.13;4969784;28;20048;-63
2022/09/13 03:26:36;;;;;;;5.53;0.20;;;;;;;16.45;100.00;100538.31;4969391;28;20304;-62
2022/09/13 03:29:05;;;;;;;2.15;0.15;;;;;;;16.48;100.00;100527.44;4969576;28;20039;-61
2022/09/13 03:31:36;;;;;;;1.17;0.10;;;;;;;16.48;100.00;100526.63;4969688;28;20077;-65
2022/09/13 03:34:43;;;;;;;0.90;0.10;;;;;;;16.47;100.00;100528.44;4969528;28;20035;-64
2022/09/13 03:37:14;;;;;;;1.50;0.10;;;;;;;16.46;100.00;100528.59;4930950;29;20043;-64
2022/09/13 03:39:51;;;;;;;1.80;0.10;;;;;;;16.45;100.00;100533.03;4931087;29;20035;-64
2022/09/13 03:42:32;;;;;;;2.78;0.20;;;;;;;16.38;100.00;100528.69;4930691;29;20410;-64
2022/09/13 03:45:00;;;;;;;1.60;0.10;;;;;;;16.34;100.00;100524.78;4930995;29;20043;-64
2022/09/13 03:47:29;;;;;;;0.80;0.13;;;;;;;16.36;100.00;100526.25;4930861;29;20043;-61
2022/09/13 03:49:56;;;;;;;3.45;0.20;;;;;;;16.35;100.00;100515.91;4930859;29;20035;-63
2022/09/13 03:52:23;;;;;;;0.40;0.10;;;;;;;16.33;100.00;100513.44;4930778;29;20045;-64
2022/09/13 03:54:48;;;;;;;0.30;0.10;;;;;;;16.33;100.00;100507.38;4930628;29;20347;-62
2022/09/13 03:57:20;;;;;;;0.70;0.13;;;;;;;16.29;100.00;100503.47;4965510;28;20351;-62
2022/09/13 03:59:48;;;;;;;1.48;0.10;;;;;;;16.24;100.00;100499.56;4988473;28;20487;-63
2022/09/13 04:02:15;;;;;;;6.43;0.20;;;;;;;16.22;100.00;100500.75;4972342;28;20046;-61
2022/09/13 04:04:42;;;;;;;1.35;0.10;;;;;;;16.13;100.00;100499.19;4988402;28;20045;-64
2022/09/13 04:07:09;;;;;;;2.88;0.20;;;;;;;16.02;100.00;100505.72;4999070;28;20037;-64
2022/09/13 04:09:35;;;;;;;0.57;0.20;;;;;;;15.98;100.00;100511.50;5050224;28;20032;-62
2022/09/13 04:12:01;;;;;;;1.60;0.20;;;;;;;16.01;100.00;100511.97;5050014;28;20327;-64
2022/09/13 04:14:27;;;;;;;0.40;0.10;;;;;;;16.10;100.00;100513.50;5050107;28;20035;-64
2022/09/13 04:16:56;;;;;;;4.78;0.10;;;;;;;16.18;100.00;100517.88;5050203;28;20109;-64
2022/09/13 04:19:23;;;;;;;3.40;0.20;;;;;;;16.22;100.00;100514.72;5050369;28;20072;-65
2022/09/13 04:21:50;;;;;;;2.40;0.20;;;;;;;16.27;100.00;100509.72;5050139;28;20021;-63
2022/09/13 04:24:17;;;;;;;2.10;0.20;;;;;;;16.31;100.00;100515.44;5049758;28;20025;-63
2022/09/13 04:26:43;;;;;;;3.80;0.43;;;;;;;16.29;100.00;100506.91;5031915;28;20037;-64
2022/09/13 04:29:08;;;;;;;0.70;0.25;;;;;;;16.30;100.00;100505.09;5050026;28;20036;-62
2022/09/13 04:31:34;;;;;;;2.30;0.10;;;;;;;16.31;100.00;100506.75;5031859;28;20037;-61
2022/09/13 04:33:59;;;;;;;2.17;0.15;;;;;;;16.34;100.00;100509.00;5050169;28;20491;-62
2022/09/13 04:36:25;;;;;;;1.95;0.10;;;;;;;16.38;100.00;100505.03;5050144;28;20357;-64
2022/09/13 04:38:51;;;;;;;3.33;0.28;;;;;;;16.42;100.00;100507.13;5049592;28;20078;-61
2022/09/13 04:41:16;;;;;;;1.45;0.10;;;;;;;16.45;100.00;100501.50;5049691;28;20025;-60
2022/09/13 04:43:42;;;;;;;1.95;0.20;;;;;;;16.51;100.00;100508.66;5049524;28;20056;-61
2022/09/13 04:46:08;;;;;;;4.28;0.20;;;;;;;16.55;100.00;100506.44;5049731;28;20032;-61
2022/09/13 04:48:33;;;;;;;1.88;0.20;;;;;;;16.52;100.00;100506.84;5049553;28;20020;-62
2022/09/13 04:51:03;;;;;;;3.35;0.20;;;;;;;16.43;100.00;100507.94;5031338;28;20028;-62
2022/09/13 04:53:30;;;;;;;1.00;0.30;;;;;;;16.41;100.00;100508.09;5049569;28;20025;-62
2022/09/13 04:56:05;;;;;;;0.80;0.20;;;;;;;16.46;100.00;100518.91;5049627;28;20029;-62
2022/09/13 04:58:31;;;;;;;1.75;0.28;;;;;;;16.51;100.00;100505.22;5049583;28;20102;-63
2022/09/13 05:01:01;;;;;;;2.85;0.30;;;;;;;16.55;100.00;100512.53;5031023;28;20475;-63
2022/09/13 05:03:31;;;;;;;5.07;0.30;;;;;;;16.56;100.00;100514.16;5049478;28;20490;-64
2022/09/13 05:06:04;;;;;;;3.25;0.38;;;;;;;16.60;100.00;100519.88;5030972;28;20091;-64
2022/09/13 05:08:30;;;;;;;0.68;0.15;;;;;;;16.63;100.00;100519.50;5049365;28;20029;-63
2022/09/13 05:10:55;;;;;;;3.85;0.30;;;;;;;16.65;100.00;100527.25;5049179;28;20358;-63
2022/09/13 05:13:21;;;;;;;2.08;0.17;;;;;;;16.67;100.00;100520.81;5049328;28;20040;-62
2022/09/13 05:15:46;;;;;;;1.45;0.20;;;;;;;16.71;100.00;100527.34;5049009;28;20029;-63
2022/09/13 05:18:12;;;;;;;1.13;0.10;;;;;;;16.73;100.00;100520.09;5049113;28;20120;-64
2022/09/13 05:20:37;;;;;;;3.10;0.20;;;;;;;16.75;100.00;100518.09;5048747;28;20063;-66
2022/09/13 05:23:03;;;;;;;2.05;0.22;;;;;;;16.77;100.00;100516.09;5048983;28;20148;-64
2022/09/13 05:25:28;;;;;;;3.53;0.30;;;;;;;16.79;100.00;100514.09;5048952;28;20563;-64
2022/09/13 05:27:54;;;;;;;2.10;0.30;;;;;;;16.81;100.00;100516.53;5049103;28;20076;-64
2022/09/13 05:30:19;;;;;;;6.13;0.47;;;;;;;16.83;100.00;100515.34;5049167;28;20032;-64
2022/09/13 05:32:45;;;;;;;1.92;0.45;;;;;;;16.85;100.00;100517.81;5048883;28;20123;-66
2022/09/13 05:35:10;;;;;;;1.73;0.40;;;;;;;16.88;100.00;100517.44;5048914;28;20126;-64
2022/09/13 05:37:36;;;;;;;2.80;0.20;;;;;;;16.91;100.00;100520.53;5048447;28;20021;-64
2022/09/13 05:40:02;;;;;;;6.18;0.63;;;;;;;16.92;100.00;100524.78;5048639;28;20029;-63
2022/09/13 05:42:28;;;;;;;3.95;0.20;;;;;;;16.97;100.00;100520.78;5048611;28;20056;-65
2022/09/13 05:44:53;;;;;;;3.75;0.22;;;;;;;17.00;100.00;100515.97;5049504;28;20112;-62
2022/09/13 05:47:19;;;;;;;1.00;0.40;;;;;;;17.03;100.00;100525.28;5048597;28;20025;-65
2022/09/13 05:49:44;;;;;;;1.45;0.30;;;;;;;17.06;100.00;100524.91;5048528;28;20040;-66
2022/09/13 05:52:10;;;;;;;1.42;0.40;;;;;;;17.08;100.00;100536.09;5048737;28;20544;-65
2022/09/13 05:54:36;;;;;;;1.80;0.28;;;;;;;17.09;100.00;100529.81;5048470;28;20563;-65
2022/09/13 05:57:03;;;;;;;2.15;0.20;;;;;;;17.12;100.00;100529.44;5048124;28;20043;-64
2022/09/13 05:59:28;;;;;;;3.05;0.30;;;;;;;17.14;100.00;100527.44;5048196;28;20025;-66
2022/09/13 06:01:54;;;;;;;1.13;0.30;;;;;;;17.17;100.00;100532.34;5030175;28;20029;-65
2022/09/13 06:04:19;;;;;;;1.42;0.20;;;;;;;17.17;100.00;100527.91;5029862;28;20490;-64
2022/09/13 06:06:45;;;;;;;0.82;0.20;;;;;;;17.20;100.00;100521.44;5048414;28;20033;-64
2022/09/13 06:09:11;;;;;;;2.70;0.95;;;;;;;17.22;100.00;100519.44;5048407;28;20415;-66
2022/09/13 06:11:37;;;;;;;3.22;0.20;;;;;;;17.24;100.00;100517.44;5029880;28;20522;-64
2022/09/13 06:14:03;;;;;;;2.15;0.17;;;;;;;17.29;100.00;100514.25;5048421;28;20025;-63
2022/09/13 06:16:28;;;;;;;3.78;0.30;;;;;;;17.30;100.00;100514.06;5048164;28;20029;-63
2022/09/13 06:18:53;;;;;;;4.75;0.20;;;;;;;17.30;100.00;100514.06;5048190;28;20028;-64
2022/09/13 06:21:21;;;;;;;2.03;0.20;;;;;;;17.32;100.00;100509.44;5047742;28;20029;-65
2022/09/13 06:23:49;;;;;;;1.83;0.32;;;;;;;17.38;100.00;100516.56;5048035;28;20040;-63
2022/09/13 06:26:18;;;;;;;1.13;0.10;;;;;;;17.44;100.00;100523.72;5029680;28;20039;-65
2022/09/13 06:28:55;;;;;;;1.77;0.20;;;;;;;17.48;100.00;100522.34;5047619;28;20466;-65
2022/09/13 06:31:23;;;;;;;3.13;0.20;;;;;;;17.52;100.00;100520.13;5047496;28;20033;-65
2022/09/13 06:33:54;;;;;;;4.18;0.10;;;;;;;17.57;100.00;100526.47;5047861;28;20036;-64
2022/09/13 06:36:19;;;;;;;0.60;0.20;;;;;;;17.63;100.00;100521.47;5048153;28;20029;-65
2022/09/13 06:38:46;;;;;;;2.05;0.20;;;;;;;17.69;99.80;100528.63;5047658;28;20485;-64
2022/09/13 06:41:14;;;;;;;1.35;0.20;;;;;;;17.77;99.72;100528.50;5047641;28;20048;-63
2022/09/13 06:43:40;;;;;;;1.98;0.20;;;;;;;17.78;99.48;100530.97;5047573;28;20069;-63
2022/09/13 06:46:09;;;;;;;3.92;0.08;;;;;;;17.80;99.09;100533.41;5047318;28;20138;-65
2022/09/13 06:48:37;;;;;;;3.38;0.40;;;;;;;17.80;99.06;100528.13;5048312;28;20484;-65
2022/09/13 06:51:09;;;;;;;5.50;0.20;;;;;;;17.83;99.01;100533.03;5052050;28;20075;-63
2022/09/13 06:53:36;;;;;;;1.33;0.20;;;;;;;17.84;98.67;100524.13;5051656;28;20029;-62
2022/09/13 06:56:11;;;;;;;5.13;0.65;;;;;;;17.84;98.14;100529.38;5051748;28;20492;-63
2022/09/13 06:58:38;;;;;;;1.27;0.20;;;;;;;17.87;98.73;100523.75;5051566;28;20060;-64
2022/09/13 07:01:10;;;;;;;3.88;0.10;;;;;;;17.96;98.36;100522.56;5051541;28;20345;-64
2022/09/13 07:03:41;;;;;;;3.83;0.13;;;;;;;18.00;98.08;100531.72;5033471;28;20032;-64
2022/09/13 07:06:18;;;;;;;7.72;0.30;;;;;;;18.04;97.75;100524.25;5051489;28;20056;-64
2022/09/13 07:08:45;;;;;;;3.97;0.10;;;;;;;18.07;97.76;100532.59;5051404;28;20072;-65
2022/09/13 07:11:12;;;;;;;4.47;0.38;;;;;;;18.12;97.60;100526.75;5051517;28;20110;-64
2022/09/13 07:13:39;;;;;;;1.45;0.20;;;;;;;18.20;97.31;100534.53;5051356;28;20033;-63
2022/09/13 07:16:07;;;;;;;3.95;0.40;;;;;;;18.25;97.23;100526.84;5051541;28;20376;-64
2022/09/13 07:18:33;;;;;;;0.68;0.10;;;;;;;18.38;97.06;100526.13;5033292;28;20136;-63
2022/09/13 07:21:00;;;;;;;3.08;0.50;;;;;;;18.55;96.81;100527.41;5051525;28;20128;-66
2022/09/13 07:23:26;;;;;;;3.60;0.40;;;;;;;18.71;95.82;100534.25;5051279;28;20056;-65
2022/09/13 07:26:00;;;;;;;2.78;0.20;;;;;;;18.87;94.91;100529.44;5051450;28;20029;-65
2022/09/13 07:28:28;;;;;;;5.95;0.20;;;;;;;19.03;95.24;100530.09;5051223;28;20029;-63
2022/09/13 07:30:53;;;;;;;3.65;0.20;;;;;;;19.04;93.66;100521.97;5051309;28;20040;-64
2022/09/13 07:33:19;;;;;;;1.95;0.10;;;;;;;19.13;93.79;100520.78;5051289;28;20025;-64
2022/09/13 07:35:45;;;;;;;3.72;0.10;;;;;;;19.20;93.28;100531.38;5032865;28;20408;-65
2022/09/13 07:38:10;;;;;;;1.75;0.20;;;;;;;19.32;92.97;100524.50;5050602;28;20021;-65
2022/09/13 07:40:36;;;;;;;3.10;0.20;;;;;;;19.67;92.35;100529.66;5050831;28;20187;-65
2022/09/13 07:43:01;;;;;;;2.17;0.20;;;;;;;19.84;91.65;100528.25;5050803;28;20107;-64
2022/09/13 07:45:27;;;;;;;1.77;0.20;;;;;;;19.93;91.25;100526.19;5050897;28;20554;-64
2022/09/13 07:47:53;;;;;;;2.15;0.10;;;;;;;19.96;90.92;100509.94;5050863;28;20036;-64
2022/09/13 07:50:18;;;;;;;5.65;0.82;;;;;;;20.18;90.77;100509.50;5032443;28;20199;-66
2022/09/13 07:52:44;;;;;;;4.72;0.20;;;;;;;20.39;89.60;100505.00;5047315;28;20674;-64
2022/09/13 07:55:09;;;;;;;2.72;0.17;;;;;;;20.54;89.84;100514.31;5050721;28;20051;-64
2022/09/13 07:57:35;;;;;;;4.32;0.20;;;;;;;20.64;87.77;100524.47;5050718;28;20021;-66
2022/09/13 08:00:01;;;;;;;5.88;0.52;;;;;;;20.76;86.98;100520.16;5032141;28;20388;-63
2022/09/13 08:02:27;;;;;;;3.33;0.20;;;;;;;20.80;86.04;100521.34;5050366;28;20025;-66
2022/09/13 08:04:52;;;;;;;6.53;0.20;;;;;;;20.70;87.82;100521.00;5050624;28;20032;-64
2022/09/13 08:07:18;;;;;;;2.85;0.13;;;;;;;20.66;87.79;100530.38;5050188;28;20337;-64
2022/09/13 08:09:43;;;;;;;3.92;0.10;;;;;;;20.62;87.50;100526.53;5050497;28;20029;-65
2022/09/13 08:12:08;;;;;;;1.63;0.10;;;;;;;20.65;87.48;100531.41;5050711;28;20036;-66
2022/09/13 08:14:34;;;;;;;1.67;0.20;;;;;;;20.76;86.72;100533.41;5050231;28;20445;-67
2022/09/13 08:17:00;;;;;;;9.80;0.50;;;;;;;20.96;85.85;100535.94;5050157;28;20040;-63
2022/09/13 08:19:26;;;;;;;4.43;0.10;;;;;;;21.12;84.80;100538.13;5032073;28;20036;-66
2022/09/13 08:21:51;;;;;;;3.22;0.10;;;;;;;21.13;84.90;100531.00;5049965;28;20021;-64
2022/09/13 08:24:20;;;;;;;4.32;0.20;;;;;;;21.23;84.51;100520.78;5050147;28;20021;-64
2022/09/13 08:26:46;;;;;;;4.95;0.40;;;;;;;21.26;84.61;100523.00;5031674;28;20116;-66
2022/09/13 08:29:12;;;;;;;4.32;0.40;;;;;;;21.41;84.63;100518.22;5050235;28;20024;-64
2022/09/13 08:31:38;;;;;;;3.45;0.20;;;;;;;21.58;83.99;100515.03;5050153;28;20032;-65
2022/09/13 08:34:03;;;;;;;5.57;0.10;;;;;;;21.61;83.48;100511.97;5031817;28;20039;-66
2022/09/13 08:36:29;;;;;;;2.10;0.10;;;;;;;21.66;83.04;100517.44;5031564;28;20431;-63
2022/09/13 08:38:59;;;;;;;2.58;0.10;;;;;;;21.66;82.48;100522.75;5050051;28;20023;-64
2022/09/13 08:41:47;;;;;;;3.17;0.30;;;;;;;21.73;80.25;100513.72;5049504;28;20032;-64
2022/09/13 08:44:36;;;;;;;3.90;0.38;;;;;;;21.79;80.51;100512.00;5031681;28;20041;-65
2022/09/13 08:47:33;;;;;;;0.60;0.10;;;;;;;21.73;81.23;100513.72;5049574;28;20029;-64
2022/09/13 08:50:18;;;;;;;0.50;0.20;;;;;;;21.76;81.28;100509.78;5041292;28;20045;-65
2022/09/13 08:53:02;;;;;;;2.63;0.00;;;;;;;21.84;81.69;100512.97;5031559;28;20044;-66
2022/09/13 08:55:47;;;;;;;0.90;0.00;;;;;;;22.00;83.83;100511.63;5049490;28;20098;-65
2022/09/13 08:58:56;;;;;;;0.65;0.10;;;;;;;22.10;84.65;100521.78;5031373;28;20033;-66
2022/09/13 09:01:34;;;;;;;0.30;0.00;;;;;;;22.04;84.78;100520.00;4986714;28;20072;-66
2022/09/13 09:04:24;;;;;;;0.60;0.10;;;;;;;21.91;85.06;100520.88;4987143;28;20073;-65
2022/09/13 09:07:05;;;;;;;0.75;0.10;;;;;;;21.81;84.60;100518.72;4987245;28;20192;-64
2022/09/13 09:09:36;;;;;;;0.30;0.00;;;;;;;21.78;84.17;100513.84;4970834;28;20026;-66
2022/09/13 09:12:17;;;;;;;2.75;0.10;;;;;;;21.79;81.58;100509.34;4986126;28;20700;-67
2022/09/13 09:14:57;;;;;;;1.45;0.10;;;;;;;21.76;83.45;100517.75;4967689;28;20533;-64
2022/09/13 09:17:28;;;;;;;0.90;0.10;;;;;;;21.83;82.50;100515.84;4967513;28;20043;-64
2022/09/13 09:20:18;;;;;;;0.50;0.10;;;;;;;21.75;82.21;100510.81;4979018;28;20030;-64
2022/09/13 09:22:44;;;;;;;0.70;0.00;;;;;;;21.77;81.60;100520.16;4985982;28;20121;-64
2022/09/13 09:25:10;;;;;;;2.35;0.10;;;;;;;21.81;81.08;100512.59;4983517;28;20035;-65
2022/09/13 09:27:36;;;;;;;0.17;0.00;;;;;;;21.90;81.33;100503.34;4987040;28;20037;-67
2022/09/13 09:30:02;;;;;;;1.05;0.10;;;;;;;21.92;81.70;100501.28;4986931;28;20030;-65
2022/09/13 09:32:58;;;;;;;0.20;0.08;;;;;;;21.96;79.29;100505.13;4986720;28;20387;-65
2022/09/13 09:35:55;;;;;;;0.50;0.00;;;;;;;22.06;80.78;100500.19;4985808;28;20080;-66
2022/09/13 09:38:39;;;;;;;1.25;0.10;;;;;;;22.21;81.38;100504.31;5024635;28;20075;-65
2022/09/13 09:41:31;;;;;;;1.98;0.10;;;;;;;22.33;80.55;100502.53;5030301;28;20037;-64
2022/09/13 09:44:12;;;;;;;0.50;0.10;;;;;;;22.20;80.13;100508.00;5048350;28;20056;-65
2022/09/13 09:46:40;;;;;;;0.57;0.00;;;;;;;22.22;80.85;100511.22;5043724;28;20025;-65
2022/09/13 09:52:08;;;;;;;0.75;0.10;;;;;;;22.14;82.23;100507.84;5048732;28;20047;-63
2022/09/13 09:54:35;;;;;;;2.00;0.17;;;;;;;22.15;80.93;100504.16;5030215;28;20040;-64
2022/09/13 09:57:00;;;;;;;3.47;0.10;;;;;;;22.26;80.68;100509.75;5029442;28;20041;-64
2022/09/13 09:59:31;;;;;;;0.43;0.10;;;;;;;22.27;79.00;100503.41;5047198;28;20415;-67
2022/09/13 10:01:59;;;;;;;0.82;0.10;;;;;;;22.24;79.00;100493.25;5031698;28;20025;-64
2022/09/13 10:04:25;;;;;;;0.82;0.05;;;;;;;22.18;79.84;100485.16;5047546;28;20029;-65
2022/09/13 10:07:21;;;;;;;1.48;0.10;;;;;;;22.19;79.54;100488.63;5046480;28;20033;-66
2022/09/13 10:10:19;;;;;;;0.93;0.10;;;;;;;22.26;79.68;100492.00;5048226;28;20029;-66
2022/09/13 10:12:50;;;;;;;0.50;0.10;;;;;;;22.26;80.39;100483.22;5030185;28;20353;-66
2022/09/13 10:15:19;;;;;;;0.55;0.08;;;;;;;22.35;81.23;100480.06;5046875;28;20029;-66
2022/09/13 10:18:16;;;;;;;3.25;0.17;;;;;;;22.49;80.03;100480.72;5048385;28;20057;-64
2022/09/13 10:20:59;;;;;;;3.80;0.20;;;;;;;22.60;81.07;100466.72;5046801;28;20040;-65
2022/09/13 10:23:26;;;;;;;0.40;0.10;;;;;;;22.66;80.28;100470.31;5029704;28;20036;-66
2022/09/13 10:26:13;;;;;;;1.08;0.10;;;;;;;22.57;76.14;100466.34;5029008;28;20035;-65
2022/09/13 10:29:06;;;;;;;0.10;0.00;;;;;;;22.63;77.49;100476.88;5046636;28;20036;-64
2022/09/13 10:31:37;;;;;;;0.03;0.00;;;;;;;22.64;77.92;100475.84;5047937;28;20393;-66
2022/09/13 10:34:27;;;;;;;1.30;0.00;;;;;;;22.63;77.16;100473.44;5030076;28;20041;-65
2022/09/13 10:37:04;;;;;;;0.57;0.10;;;;;;;22.52;76.78;100469.66;5045944;28;20037;-66
2022/09/13 10:39:35;;;;;;;1.52;0.08;;;;;;;22.49;77.67;100470.13;5047731;28;20098;-64
2022/09/13 10:42:09;;;;;;;1.85;0.10;;;;;;;22.54;74.59;100472.91;5029511;28;20143;-65
2022/09/13 10:44:45;;;;;;;3.30;0.10;;;;;;;22.59;75.33;100464.28;5048053;28;20051;-64
2022/09/13 10:47:21;;;;;;;4.28;0.08;;;;;;;22.49;75.23;100459.50;5045365;28;20041;-66
2022/09/13 10:49:47;;;;;;;1.55;0.20;;;;;;;22.53;76.30;100455.38;5046995;28;20024;-64
2022/09/13 10:52:22;;;;;;;0.13;0.00;;;;;;;22.58;74.78;100463.47;5044528;28;20240;-67
2022/09/13 10:54:47;;;;;;;0.28;0.00;;;;;;;22.65;75.29;100464.19;5047608;28;20119;-64
2022/09/13 10:57:36;;;;;;;0.30;0.00;;;;;;;22.77;72.47;100457.06;5046285;28;20119;-66
2022/09/13 11:00:07;;;;;;;0.10;0.00;;;;;;;22.86;72.74;100452.28;5042770;28;20029;-66
2022/09/13 11:02:53;;;;;;;0.43;0.00;;;;;;;22.99;72.12;100465.41;5046138;28;20102;-66
2022/09/13 11:05:28;;;;;;;1.88;0.05;;;;;;;23.02;73.03;100464.97;5036966;28;20041;-65
2022/09/13 11:08:31;;;;;;;0.20;0.00;;;;;;;23.11;71.85;100460.94;5045917;28;20033;-66
2022/09/13 11:11:15;;;;;;;0.40;0.00;;;;;;;23.18;73.28;100458.16;5028667;28;20065;-65
2022/09/13 11:13:59;;;;;;;0.35;0.00;;;;;;;23.16;73.20;100457.56;5047439;28;20041;-66
2022/09/13 11:17:19;;;;;;;0.32;0.00;;;;;;;23.20;71.80;100455.28;5045741;28;20058;-64
2022/09/13 11:20:12;;;;;;;0.20;0.05;;;;;;;23.33;72.76;100466.53;4962284;28;20049;-64
2022/09/13 11:22:55;;;;;;;0.20;0.00;;;;;;;23.48;73.95;100461.59;4949813;28;20435;-64
2022/09/13 11:25:29;;;;;;;0.30;0.00;;;;;;;23.55;73.98;100466.03;4966032;28;20038;-64
2022/09/13 11:28:21;;;;;;;1.40;0.15;;;;;;;23.60;74.64;100472.28;4964429;28;20070;-65
2022/09/13 11:31:34;;;;;;;0.30;0.00;;;;;;;23.55;74.30;100471.34;4958911;28;20046;-64
2022/09/13 11:34:02;;;;;;;0.40;0.10;;;;;;;23.46;75.72;100476.97;4907959;29;20052;-64
2022/09/13 11:36:35;;;;;;;0.22;0.00;;;;;;;23.48;75.04;100479.41;4912007;29;20127;-64
2022/09/13 11:39:18;;;;;;;0.52;0.00;;;;;;;23.47;75.39;100478.59;4912086;29;20042;-64
2022/09/13 11:42:14;;;;;;;2.88;0.20;;;;;;;23.38;74.61;100477.28;4909547;29;20236;-65
2022/09/13 11:45:16;;;;;;;1.27;0.00;;;;;;;23.33;75.48;100469.19;4900583;29;20242;-62
2022/09/13 11:48:19;;;;;;;1.13;0.00;;;;;;;23.29;75.47;100470.69;4909928;29;20051;-63
2022/09/13 11:51:18;;;;;;;2.03;0.20;;;;;;;23.22;74.00;100472.63;4910972;29;20567;-62
2022/09/13 11:53:59;;;;;;;1.17;0.00;;;;;;;23.17;76.06;100475.97;4923068;29;20483;-63
2022/09/13 11:56:43;;;;;;;0.40;0.00;;;;;;;23.10;76.63;100480.59;4930410;29;20043;-63